sensor_id;sensor_type;location;lat;lon;timestamp;P1;durP1;ratioP1;P2;durP2;ratioP2
24857;SDS011;12935;50.782;6.074;2023-03-12T00:02:08;15.48;;;3.50;;
24857;SDS011;12935;50.782;6.074;2023-03-12T00:04:33;13.40;;;2.50;;
24857;SDS011;12935;50.782;6.074;2023-03-12T00:07:00;15.48;;;2.53;;
24857;SDS011;12935;50.782;6.074;2023-03-12T00:09:27;21.55;;;3.58;;
24857;SDS011;12935;50.782;6.074;2023-03-12T00:11:53;13.20;;;2.37;;
24857;SDS011;12935;50.782;6.074;2023-03-12T00:14:19;17.27;;;2.67;;
24857;SDS011;12935;50.782;6.074;2023-03-12T00:16:44;14.03;;;2.57;;
24857;SDS011;12935;50.782;6.074;2023-03-12T00:19:13;9.97;;;2.03;;
24857;SDS011;12935;50.782;6.074;2023-03-12T00:21:39;17.33;;;3.03;;
24857;SDS011;12935;50.782;6.074;2023-03-12T00:24:04;19.00;;;3.00;;
24857;SDS011;12935;50.782;6.074;2023-03-12T00:26:31;17.38;;;3.03;;
24857;SDS011;12935;50.782;6.074;2023-03-12T00:28:56;28.20;;;4.07;;
24857;SDS011;12935;50.782;6.074;2023-03-12T00:31:23;18.20;;;3.10;;
24857;SDS011;12935;50.782;6.074;2023-03-12T00:33:51;18.85;;;2.80;;
24857;SDS011;12935;50.782;6.074;2023-03-12T00:36:18;18.48;;;2.95;;
24857;SDS011;12935;50.782;6.074;2023-03-12T00:38:48;18.40;;;2.88;;
24857;SDS011;12935;50.782;6.074;2023-03-12T00:41:14;14.48;;;2.40;;
24857;SDS011;12935;50.782;6.074;2023-03-12T00:43:39;18.33;;;3.23;;
24857;SDS011;12935;50.782;6.074;2023-03-12T00:46:04;35.30;;;4.80;;
24857;SDS011;12935;50.782;6.074;2023-03-12T00:48:30;16.63;;;2.73;;
24857;SDS011;12935;50.782;6.074;2023-03-12T00:50:55;17.33;;;3.17;;
24857;SDS011;12935;50.782;6.074;2023-03-12T00:53:21;15.10;;;2.67;;
24857;SDS011;12935;50.782;6.074;2023-03-12T00:55:46;18.20;;;2.97;;
24857;SDS011;12935;50.782;6.074;2023-03-12T00:58:11;20.13;;;3.00;;
24857;SDS011;12935;50.782;6.074;2023-03-12T01:00:40;25.07;;;3.60;;
24857;SDS011;12935;50.782;6.074;2023-03-12T01:03:05;24.13;;;3.65;;
24857;SDS011;12935;50.782;6.074;2023-03-12T01:05:31;15.30;;;2.60;;
24857;SDS011;12935;50.782;6.074;2023-03-12T01:08:01;14.32;;;2.40;;
24857;SDS011;12935;50.782;6.074;2023-03-12T01:10:30;16.30;;;2.78;;
24857;SDS011;12935;50.782;6.074;2023-03-12T01:12:55;19.47;;;3.10;;
24857;SDS011;12935;50.782;6.074;2023-03-12T01:15:21;23.03;;;3.60;;
24857;SDS011;12935;50.782;6.074;2023-03-12T01:17:46;22.90;;;3.30;;
24857;SDS011;12935;50.782;6.074;2023-03-12T01:20:12;17.53;;;2.87;;
24857;SDS011;12935;50.782;6.074;2023-03-12T01:22:37;37.57;;;4.00;;
24857;SDS011;12935;50.782;6.074;2023-03-12T01:25:03;26.50;;;4.03;;
24857;SDS011;12935;50.782;6.074;2023-03-12T01:27:29;24.13;;;3.55;;
24857;SDS011;12935;50.782;6.074;2023-03-12T01:29:54;38.83;;;5.27;;
24857;SDS011;12935;50.782;6.074;2023-03-12T01:32:20;21.93;;;3.30;;
24857;SDS011;12935;50.782;6.074;2023-03-12T01:34:48;25.23;;;3.77;;
24857;SDS011;12935;50.782;6.074;2023-03-12T01:37:13;20.95;;;3.67;;
24857;SDS011;12935;50.782;6.074;2023-03-12T01:39:39;17.33;;;2.90;;
24857;SDS011;12935;50.782;6.074;2023-03-12T01:42:05;19.73;;;3.47;;
24857;SDS011;12935;50.782;6.074;2023-03-12T01:44:47;14.27;;;2.60;;
24857;SDS011;12935;50.782;6.074;2023-03-12T01:47:22;14.10;;;2.45;;
24857;SDS011;12935;50.782;6.074;2023-03-12T01:49:49;16.93;;;2.80;;
24857;SDS011;12935;50.782;6.074;2023-03-12T01:52:23;19.77;;;3.20;;
24857;SDS011;12935;50.782;6.074;2023-03-12T01:57:35;16.67;;;3.08;;
24857;SDS011;12935;50.782;6.074;2023-03-12T02:00:16;16.42;;;2.70;;
24857;SDS011;12935;50.782;6.074;2023-03-12T02:02:44;21.33;;;3.28;;
24857;SDS011;12935;50.782;6.074;2023-03-12T02:05:54;11.15;;;2.13;;
24857;SDS011;12935;50.782;6.074;2023-03-12T02:08:08;11.95;;;2.20;;
24857;SDS011;12935;50.782;6.074;2023-03-12T02:10:35;14.02;;;2.55;;
24857;SDS011;12935;50.782;6.074;2023-03-12T02:13:00;27.17;;;3.87;;
24857;SDS011;12935;50.782;6.074;2023-03-12T02:15:26;12.60;;;2.10;;
24857;SDS011;12935;50.782;6.074;2023-03-12T02:17:51;28.90;;;4.37;;
24857;SDS011;12935;50.782;6.074;2023-03-12T02:20:22;15.88;;;2.65;;
24857;SDS011;12935;50.782;6.074;2023-03-12T02:22:56;18.33;;;4.00;;
24857;SDS011;12935;50.782;6.074;2023-03-12T02:25:34;23.20;;;3.47;;
24857;SDS011;12935;50.782;6.074;2023-03-12T02:28:04;12.07;;;2.05;;
24857;SDS011;12935;50.782;6.074;2023-03-12T02:30:34;14.38;;;2.47;;
24857;SDS011;12935;50.782;6.074;2023-03-12T02:33:01;13.40;;;2.30;;
24857;SDS011;12935;50.782;6.074;2023-03-12T02:35:31;15.55;;;2.65;;
24857;SDS011;12935;50.782;6.074;2023-03-12T02:37:57;25.70;;;3.43;;
24857;SDS011;12935;50.782;6.074;2023-03-12T02:40:23;16.23;;;2.70;;
24857;SDS011;12935;50.782;6.074;2023-03-12T02:42:53;22.55;;;3.45;;
24857;SDS011;12935;50.782;6.074;2023-03-12T02:45:19;16.73;;;2.55;;
24857;SDS011;12935;50.782;6.074;2023-03-12T02:47:45;21.57;;;3.17;;
24857;SDS011;12935;50.782;6.074;2023-03-12T02:50:10;21.53;;;3.20;;
24857;SDS011;12935;50.782;6.074;2023-03-12T02:52:35;17.77;;;3.67;;
24857;SDS011;12935;50.782;6.074;2023-03-12T02:55:02;34.28;;;4.72;;
24857;SDS011;12935;50.782;6.074;2023-03-12T02:57:28;18.52;;;3.00;;
24857;SDS011;12935;50.782;6.074;2023-03-12T02:59:54;27.67;;;3.87;;
24857;SDS011;12935;50.782;6.074;2023-03-12T03:02:19;16.80;;;2.87;;
24857;SDS011;12935;50.782;6.074;2023-03-12T03:04:44;14.50;;;2.50;;
24857;SDS011;12935;50.782;6.074;2023-03-12T03:07:10;17.60;;;2.93;;
24857;SDS011;12935;50.782;6.074;2023-03-12T03:09:35;31.17;;;4.60;;
24857;SDS011;12935;50.782;6.074;2023-03-12T03:12:00;22.10;;;3.43;;
24857;SDS011;12935;50.782;6.074;2023-03-12T03:14:26;14.93;;;2.57;;
24857;SDS011;12935;50.782;6.074;2023-03-12T03:16:51;22.83;;;3.23;;
24857;SDS011;12935;50.782;6.074;2023-03-12T03:19:16;14.07;;;2.20;;
24857;SDS011;12935;50.782;6.074;2023-03-12T03:21:42;27.37;;;4.23;;
24857;SDS011;12935;50.782;6.074;2023-03-12T03:24:07;27.03;;;4.10;;
24857;SDS011;12935;50.782;6.074;2023-03-12T03:26:33;13.53;;;2.37;;
24857;SDS011;12935;50.782;6.074;2023-03-12T03:28:58;36.03;;;4.90;;
24857;SDS011;12935;50.782;6.074;2023-03-12T03:31:23;23.90;;;3.37;;
24857;SDS011;12935;50.782;6.074;2023-03-12T03:33:49;14.20;;;2.47;;
24857;SDS011;12935;50.782;6.074;2023-03-12T03:36:15;11.97;;;2.10;;
24857;SDS011;12935;50.782;6.074;2023-03-12T03:38:41;18.98;;;3.25;;
24857;SDS011;12935;50.782;6.074;2023-03-12T03:41:11;17.00;;;2.58;;
24857;SDS011;12935;50.782;6.074;2023-03-12T03:43:36;11.00;;;2.43;;
24857;SDS011;12935;50.782;6.074;2023-03-12T03:46:03;9.57;;;1.93;;
24857;SDS011;12935;50.782;6.074;2023-03-12T03:48:29;12.98;;;2.40;;
24857;SDS011;12935;50.782;6.074;2023-03-12T03:51:02;12.77;;;2.33;;
24857;SDS011;12935;50.782;6.074;2023-03-12T03:53:29;14.18;;;2.63;;
24857;SDS011;12935;50.782;6.074;2023-03-12T03:55:55;18.13;;;2.72;;
24857;SDS011;12935;50.782;6.074;2023-03-12T03:58:21;14.93;;;2.60;;
24857;SDS011;12935;50.782;6.074;2023-03-12T04:00:47;13.33;;;3.23;;
24857;SDS011;12935;50.782;6.074;2023-03-12T04:03:13;21.70;;;3.27;;
24857;SDS011;12935;50.782;6.074;2023-03-12T04:05:38;20.33;;;3.17;;
24857;SDS011;12935;50.782;6.074;2023-03-12T04:08:04;23.40;;;4.83;;
24857;SDS011;12935;50.782;6.074;2023-03-12T04:10:30;20.13;;;3.20;;
24857;SDS011;12935;50.782;6.074;2023-03-12T04:13:01;18.20;;;3.00;;
24857;SDS011;12935;50.782;6.074;2023-03-12T04:15:27;13.98;;;2.63;;
24857;SDS011;12935;50.782;6.074;2023-03-12T04:17:52;18.93;;;2.93;;
24857;SDS011;12935;50.782;6.074;2023-03-12T04:20:17;17.47;;;2.90;;
24857;SDS011;12935;50.782;6.074;2023-03-12T04:22:42;13.40;;;2.10;;
24857;SDS011;12935;50.782;6.074;2023-03-12T04:25:08;16.87;;;4.40;;
24857;SDS011;12935;50.782;6.074;2023-03-12T04:27:33;15.27;;;2.77;;
24857;SDS011;12935;50.782;6.074;2023-03-12T04:29:59;13.87;;;2.50;;
24857;SDS011;12935;50.782;6.074;2023-03-12T04:32:24;11.53;;;2.07;;
24857;SDS011;12935;50.782;6.074;2023-03-12T04:34:49;18.43;;;2.87;;
24857;SDS011;12935;50.782;6.074;2023-03-12T04:37:15;23.60;;;3.60;;
24857;SDS011;12935;50.782;6.074;2023-03-12T04:39:41;10.80;;;2.07;;
24857;SDS011;12935;50.782;6.074;2023-03-12T04:42:10;20.98;;;3.20;;
24857;SDS011;12935;50.782;6.074;2023-03-12T04:44:36;13.33;;;2.23;;
24857;SDS011;12935;50.782;6.074;2023-03-12T04:47:02;12.73;;;2.53;;
24857;SDS011;12935;50.782;6.074;2023-03-12T04:49:27;31.17;;;4.55;;
24857;SDS011;12935;50.782;6.074;2023-03-12T04:51:53;16.23;;;2.83;;
24857;SDS011;12935;50.782;6.074;2023-03-12T04:54:19;18.17;;;3.13;;
24857;SDS011;12935;50.782;6.074;2023-03-12T04:56:45;17.45;;;2.80;;
24857;SDS011;12935;50.782;6.074;2023-03-12T04:59:12;15.23;;;2.42;;
24857;SDS011;12935;50.782;6.074;2023-03-12T05:01:37;14.43;;;3.37;;
24857;SDS011;12935;50.782;6.074;2023-03-12T05:04:03;13.23;;;2.40;;
24857;SDS011;12935;50.782;6.074;2023-03-12T05:06:29;17.50;;;3.10;;
24857;SDS011;12935;50.782;6.074;2023-03-12T05:08:55;17.60;;;3.30;;
24857;SDS011;12935;50.782;6.074;2023-03-12T05:11:21;26.13;;;3.87;;
24857;SDS011;12935;50.782;6.074;2023-03-12T05:13:47;19.42;;;3.78;;
24857;SDS011;12935;50.782;6.074;2023-03-12T05:16:13;19.70;;;3.30;;
24857;SDS011;12935;50.782;6.074;2023-03-12T05:18:39;19.27;;;3.13;;
24857;SDS011;12935;50.782;6.074;2023-03-12T05:21:06;16.73;;;2.83;;
24857;SDS011;12935;50.782;6.074;2023-03-12T05:23:35;23.42;;;3.50;;
24857;SDS011;12935;50.782;6.074;2023-03-12T05:26:03;16.42;;;2.67;;
24857;SDS011;12935;50.782;6.074;2023-03-12T05:28:32;16.13;;;2.67;;
24857;SDS011;12935;50.782;6.074;2023-03-12T05:30:58;22.20;;;3.50;;
24857;SDS011;12935;50.782;6.074;2023-03-12T05:33:25;17.75;;;2.63;;
24857;SDS011;12935;50.782;6.074;2023-03-12T05:35:52;14.65;;;2.33;;
24857;SDS011;12935;50.782;6.074;2023-03-12T05:38:17;15.60;;;2.53;;
24857;SDS011;12935;50.782;6.074;2023-03-12T05:40:49;13.23;;;2.33;;
24857;SDS011;12935;50.782;6.074;2023-03-12T05:43:16;18.48;;;3.25;;
24857;SDS011;12935;50.782;6.074;2023-03-12T05:45:42;16.53;;;3.10;;
24857;SDS011;12935;50.782;6.074;2023-03-12T05:48:07;14.43;;;2.47;;
24857;SDS011;12935;50.782;6.074;2023-03-12T05:50:33;12.77;;;2.47;;
24857;SDS011;12935;50.782;6.074;2023-03-12T05:52:59;15.63;;;2.63;;
24857;SDS011;12935;50.782;6.074;2023-03-12T05:55:24;15.77;;;3.23;;
24857;SDS011;12935;50.782;6.074;2023-03-12T05:57:50;14.83;;;2.57;;
24857;SDS011;12935;50.782;6.074;2023-03-12T06:00:16;14.30;;;2.50;;
24857;SDS011;12935;50.782;6.074;2023-03-12T06:02:42;15.48;;;2.85;;
24857;SDS011;12935;50.782;6.074;2023-03-12T06:05:08;21.03;;;3.10;;
24857;SDS011;12935;50.782;6.074;2023-03-12T06:07:37;11.60;;;2.35;;
24857;SDS011;12935;50.782;6.074;2023-03-12T06:10:02;16.77;;;3.10;;
24857;SDS011;12935;50.782;6.074;2023-03-12T06:12:28;19.97;;;3.97;;
24857;SDS011;12935;50.782;6.074;2023-03-12T06:14:53;20.00;;;3.47;;
24857;SDS011;12935;50.782;6.074;2023-03-12T06:17:19;20.73;;;3.20;;
24857;SDS011;12935;50.782;6.074;2023-03-12T06:19:44;21.30;;;3.47;;
24857;SDS011;12935;50.782;6.074;2023-03-12T06:22:09;18.13;;;3.10;;
24857;SDS011;12935;50.782;6.074;2023-03-12T06:24:35;13.10;;;2.47;;
24857;SDS011;12935;50.782;6.074;2023-03-12T06:27:00;16.33;;;2.77;;
24857;SDS011;12935;50.782;6.074;2023-03-12T06:29:26;27.20;;;4.07;;
24857;SDS011;12935;50.782;6.074;2023-03-12T06:31:51;12.90;;;2.23;;
24857;SDS011;12935;50.782;6.074;2023-03-12T06:34:17;13.57;;;2.87;;
24857;SDS011;12935;50.782;6.074;2023-03-12T06:36:43;17.33;;;3.03;;
24857;SDS011;12935;50.782;6.074;2023-03-12T06:39:09;17.67;;;3.60;;
24857;SDS011;12935;50.782;6.074;2023-03-12T06:41:37;9.85;;;1.95;;
24857;SDS011;12935;50.782;6.074;2023-03-12T06:44:04;11.15;;;2.15;;
24857;SDS011;12935;50.782;6.074;2023-03-12T06:46:30;18.40;;;3.37;;
24857;SDS011;12935;50.782;6.074;2023-03-12T06:48:56;19.27;;;3.03;;
24857;SDS011;12935;50.782;6.074;2023-03-12T06:51:21;14.17;;;2.73;;
24857;SDS011;12935;50.782;6.074;2023-03-12T06:53:48;17.25;;;3.05;;
24857;SDS011;12935;50.782;6.074;2023-03-12T06:56:13;19.97;;;3.23;;
24857;SDS011;12935;50.782;6.074;2023-03-12T06:58:39;11.65;;;2.53;;
24857;SDS011;12935;50.782;6.074;2023-03-12T07:01:05;14.13;;;2.70;;
24857;SDS011;12935;50.782;6.074;2023-03-12T07:03:31;13.15;;;2.60;;
24857;SDS011;12935;50.782;6.074;2023-03-12T07:05:57;10.70;;;2.00;;
24857;SDS011;12935;50.782;6.074;2023-03-12T07:08:23;15.45;;;2.55;;
24857;SDS011;12935;50.782;6.074;2023-03-12T07:10:50;16.58;;;3.08;;
24857;SDS011;12935;50.782;6.074;2023-03-12T07:13:16;14.30;;;2.33;;
24857;SDS011;12935;50.782;6.074;2023-03-12T07:15:41;15.10;;;2.97;;
24857;SDS011;12935;50.782;6.074;2023-03-12T07:18:10;16.38;;;2.83;;
24857;SDS011;12935;50.782;6.074;2023-03-12T07:20:36;21.45;;;3.58;;
24857;SDS011;12935;50.782;6.074;2023-03-12T07:23:03;9.10;;;2.58;;
24857;SDS011;12935;50.782;6.074;2023-03-12T07:25:29;14.33;;;2.67;;
24857;SDS011;12935;50.782;6.074;2023-03-12T07:27:55;16.60;;;3.30;;
24857;SDS011;12935;50.782;6.074;2023-03-12T07:30:20;18.53;;;3.33;;
24857;SDS011;12935;50.782;6.074;2023-03-12T07:32:47;16.52;;;3.45;;
24857;SDS011;12935;50.782;6.074;2023-03-12T07:35:12;24.73;;;3.70;;
24857;SDS011;12935;50.782;6.074;2023-03-12T07:37:38;18.70;;;3.77;;
24857;SDS011;12935;50.782;6.074;2023-03-12T07:40:04;11.53;;;2.40;;
24857;SDS011;12935;50.782;6.074;2023-03-12T07:42:31;16.10;;;3.08;;
24857;SDS011;12935;50.782;6.074;2023-03-12T07:44:58;13.52;;;2.85;;
24857;SDS011;12935;50.782;6.074;2023-03-12T07:47:23;14.73;;;2.83;;
24857;SDS011;12935;50.782;6.074;2023-03-12T07:49:49;12.00;;;2.60;;
24857;SDS011;12935;50.782;6.074;2023-03-12T07:52:15;18.93;;;3.40;;
24857;SDS011;12935;50.782;6.074;2023-03-12T07:54:42;12.90;;;2.72;;
24857;SDS011;12935;50.782;6.074;2023-03-12T07:57:07;17.43;;;3.73;;
24857;SDS011;12935;50.782;6.074;2023-03-12T07:59:33;21.53;;;3.90;;
24857;SDS011;12935;50.782;6.074;2023-03-12T08:01:59;13.03;;;2.57;;
24857;SDS011;12935;50.782;6.074;2023-03-12T08:04:27;15.40;;;3.15;;
24857;SDS011;12935;50.782;6.074;2023-03-12T08:06:53;13.73;;;3.00;;
24857;SDS011;12935;50.782;6.074;2023-03-12T08:09:18;13.77;;;2.77;;
24857;SDS011;12935;50.782;6.074;2023-03-12T08:11:44;19.77;;;3.60;;
24857;SDS011;12935;50.782;6.074;2023-03-12T08:14:10;13.37;;;2.73;;
24857;SDS011;12935;50.782;6.074;2023-03-12T08:16:35;16.47;;;3.27;;
24857;SDS011;12935;50.782;6.074;2023-03-12T08:19:01;14.70;;;2.97;;
24857;SDS011;12935;50.782;6.074;2023-03-12T08:21:26;19.27;;;3.77;;
24857;SDS011;12935;50.782;6.074;2023-03-12T08:23:52;21.40;;;3.40;;
24857;SDS011;12935;50.782;6.074;2023-03-12T08:26:18;13.63;;;3.00;;
24857;SDS011;12935;50.782;6.074;2023-03-12T08:28:44;13.77;;;3.10;;
24857;SDS011;12935;50.782;6.074;2023-03-12T08:31:09;14.93;;;3.23;;
24857;SDS011;12935;50.782;6.074;2023-03-12T08:33:35;22.53;;;3.90;;
24857;SDS011;12935;50.782;6.074;2023-03-12T08:36:05;17.38;;;3.28;;
24857;SDS011;12935;50.782;6.074;2023-03-12T08:38:31;15.50;;;3.05;;
24857;SDS011;12935;50.782;6.074;2023-03-12T08:40:57;15.73;;;3.20;;
24857;SDS011;12935;50.782;6.074;2023-03-12T08:43:24;12.43;;;2.83;;
24857;SDS011;12935;50.782;6.074;2023-03-12T08:46:08;14.40;;;2.97;;
24857;SDS011;12935;50.782;6.074;2023-03-12T08:48:34;18.42;;;3.70;;
24857;SDS011;12935;50.782;6.074;2023-03-12T08:51:00;19.80;;;3.90;;
24857;SDS011;12935;50.782;6.074;2023-03-12T08:53:28;17.13;;;3.30;;
24857;SDS011;12935;50.782;6.074;2023-03-12T08:55:55;12.57;;;3.05;;
24857;SDS011;12935;50.782;6.074;2023-03-12T08:58:22;14.98;;;3.10;;
24857;SDS011;12935;50.782;6.074;2023-03-12T09:00:49;18.05;;;4.55;;
24857;SDS011;12935;50.782;6.074;2023-03-12T09:03:15;16.65;;;3.42;;
24857;SDS011;12935;50.782;6.074;2023-03-12T09:05:41;19.60;;;4.17;;
24857;SDS011;12935;50.782;6.074;2023-03-12T09:08:08;27.10;;;4.75;;
24857;SDS011;12935;50.782;6.074;2023-03-12T09:10:35;18.50;;;3.47;;
24857;SDS011;12935;50.782;6.074;2023-03-12T09:13:01;21.92;;;4.00;;
24857;SDS011;12935;50.782;6.074;2023-03-12T09:15:27;17.80;;;3.97;;
24857;SDS011;12935;50.782;6.074;2023-03-12T09:17:53;13.23;;;4.20;;
24857;SDS011;12935;50.782;6.074;2023-03-12T09:20:20;16.90;;;3.60;;
24857;SDS011;12935;50.782;6.074;2023-03-12T09:22:46;14.23;;;3.28;;
24857;SDS011;12935;50.782;6.074;2023-03-12T09:25:13;20.03;;;3.97;;
24857;SDS011;12935;50.782;6.074;2023-03-12T09:27:39;23.30;;;4.25;;
24857;SDS011;12935;50.782;6.074;2023-03-12T09:30:08;16.25;;;3.30;;
24857;SDS011;12935;50.782;6.074;2023-03-12T09:32:36;23.85;;;3.88;;
24857;SDS011;12935;50.782;6.074;2023-03-12T09:35:02;17.63;;;4.13;;
24857;SDS011;12935;50.782;6.074;2023-03-12T09:37:28;18.75;;;4.40;;
24857;SDS011;12935;50.782;6.074;2023-03-12T09:39:56;29.88;;;5.35;;
24857;SDS011;12935;50.782;6.074;2023-03-12T09:42:24;10.90;;;2.65;;
24857;SDS011;12935;50.782;6.074;2023-03-12T09:44:54;21.15;;;5.20;;
24857;SDS011;12935;50.782;6.074;2023-03-12T09:49:55;13.77;;;3.60;;
24857;SDS011;12935;50.782;6.074;2023-03-12T09:57:44;18.27;;;4.72;;
24857;SDS011;12935;50.782;6.074;2023-03-12T10:00:15;13.32;;;3.40;;
24857;SDS011;12935;50.782;6.074;2023-03-12T10:05:25;12.40;;;4.32;;
24857;SDS011;12935;50.782;6.074;2023-03-12T10:08:18;13.57;;;4.82;;
24857;SDS011;12935;50.782;6.074;2023-03-12T10:13:52;10.30;;;3.35;;
24857;SDS011;12935;50.782;6.074;2023-03-12T10:24:59;17.45;;;3.78;;
24857;SDS011;12935;50.782;6.074;2023-03-12T10:27:37;12.45;;;3.50;;
24857;SDS011;12935;50.782;6.074;2023-03-12T10:30:12;15.40;;;3.53;;
24857;SDS011;12935;50.782;6.074;2023-03-12T10:33:03;14.45;;;5.35;;
24857;SDS011;12935;50.782;6.074;2023-03-12T10:35:37;14.38;;;4.30;;
24857;SDS011;12935;50.782;6.074;2023-03-12T10:38:04;23.38;;;6.32;;
24857;SDS011;12935;50.782;6.074;2023-03-12T10:40:41;18.38;;;5.35;;
24857;SDS011;12935;50.782;6.074;2023-03-12T10:43:06;16.33;;;4.70;;
24857;SDS011;12935;50.782;6.074;2023-03-12T10:48:31;17.08;;;3.95;;
24857;SDS011;12935;50.782;6.074;2023-03-12T10:51:00;10.23;;;3.60;;
24857;SDS011;12935;50.782;6.074;2023-03-12T10:53:36;15.48;;;4.03;;
24857;SDS011;12935;50.782;6.074;2023-03-12T10:56:13;20.52;;;5.72;;
24857;SDS011;12935;50.782;6.074;2023-03-12T10:58:42;16.85;;;4.80;;
24857;SDS011;12935;50.782;6.074;2023-03-12T11:01:18;19.55;;;6.75;;
24857;SDS011;12935;50.782;6.074;2023-03-12T11:03:48;15.30;;;4.88;;
24857;SDS011;12935;50.782;6.074;2023-03-12T11:06:27;19.73;;;5.15;;
24857;SDS011;12935;50.782;6.074;2023-03-12T11:11:43;18.30;;;5.60;;
24857;SDS011;12935;50.782;6.074;2023-03-12T11:16:42;17.10;;;4.30;;
24857;SDS011;12935;50.782;6.074;2023-03-12T11:19:09;22.60;;;6.77;;
24857;SDS011;12935;50.782;6.074;2023-03-12T11:21:38;18.13;;;5.10;;
24857;SDS011;12935;50.782;6.074;2023-03-12T11:26:46;19.13;;;5.97;;
24857;SDS011;12935;50.782;6.074;2023-03-12T11:29:20;27.02;;;6.75;;
24857;SDS011;12935;50.782;6.074;2023-03-12T11:31:54;32.75;;;6.00;;
24857;SDS011;12935;50.782;6.074;2023-03-12T11:34:29;17.88;;;6.25;;
24857;SDS011;12935;50.782;6.074;2023-03-12T11:39:39;29.13;;;8.80;;
24857;SDS011;12935;50.782;6.074;2023-03-12T11:42:15;26.55;;;7.68;;
24857;SDS011;12935;50.782;6.074;2023-03-12T12:03:43;21.95;;;9.02;;
24857;SDS011;12935;50.782;6.074;2023-03-12T12:11:38;20.52;;;7.53;;
24857;SDS011;12935;50.782;6.074;2023-03-12T12:22:51;11.83;;;6.00;;
24857;SDS011;12935;50.782;6.074;2023-03-12T12:36:31;16.52;;;5.80;;
24857;SDS011;12935;50.782;6.074;2023-03-12T12:39:04;15.67;;;5.23;;
24857;SDS011;12935;50.782;6.074;2023-03-12T12:41:39;28.85;;;7.85;;
24857;SDS011;12935;50.782;6.074;2023-03-12T12:47:08;20.33;;;5.90;;
24857;SDS011;12935;50.782;6.074;2023-03-12T12:49:42;29.70;;;8.17;;
24857;SDS011;12935;50.782;6.074;2023-03-12T12:52:15;29.65;;;7.15;;
24857;SDS011;12935;50.782;6.074;2023-03-12T12:57:51;22.73;;;9.05;;
24857;SDS011;12935;50.782;6.074;2023-03-12T13:03:01;27.30;;;10.35;;
24857;SDS011;12935;50.782;6.074;2023-03-12T13:13:44;21.63;;;7.60;;
24857;SDS011;12935;50.782;6.074;2023-03-12T13:19:06;18.70;;;6.97;;
24857;SDS011;12935;50.782;6.074;2023-03-12T13:24:41;14.32;;;5.70;;
24857;SDS011;12935;50.782;6.074;2023-03-12T13:27:22;20.75;;;5.70;;
24857;SDS011;12935;50.782;6.074;2023-03-12T13:29:50;18.98;;;7.95;;
24857;SDS011;12935;50.782;6.074;2023-03-12T13:40:38;22.03;;;7.70;;
24857;SDS011;12935;50.782;6.074;2023-03-12T13:43:32;18.60;;;6.17;;
24857;SDS011;12935;50.782;6.074;2023-03-12T13:46:06;17.85;;;7.15;;
24857;SDS011;12935;50.782;6.074;2023-03-12T13:48:52;22.02;;;6.68;;
24857;SDS011;12935;50.782;6.074;2023-03-12T13:51:23;21.70;;;6.50;;
24857;SDS011;12935;50.782;6.074;2023-03-12T13:53:54;18.95;;;6.43;;
24857;SDS011;12935;50.782;6.074;2023-03-12T13:56:27;18.17;;;5.77;;
24857;SDS011;12935;50.782;6.074;2023-03-12T13:59:06;17.97;;;6.00;;
24857;SDS011;12935;50.782;6.074;2023-03-12T14:01:40;21.65;;;7.53;;
24857;SDS011;12935;50.782;6.074;2023-03-12T14:04:11;16.60;;;6.20;;
24857;SDS011;12935;50.782;6.074;2023-03-12T14:06:51;14.30;;;5.80;;
24857;SDS011;12935;50.782;6.074;2023-03-12T14:12:36;15.70;;;6.40;;
24857;SDS011;12935;50.782;6.074;2023-03-12T14:17:54;19.33;;;6.70;;
24857;SDS011;12935;50.782;6.074;2023-03-12T14:20:25;25.97;;;8.47;;
24857;SDS011;12935;50.782;6.074;2023-03-12T14:22:53;12.77;;;6.23;;
24857;SDS011;12935;50.782;6.074;2023-03-12T14:27:58;27.87;;;12.23;;
24857;SDS011;12935;50.782;6.074;2023-03-12T14:33:24;32.33;;;9.20;;
24857;SDS011;12935;50.782;6.074;2023-03-12T14:35:56;24.50;;;9.77;;
24857;SDS011;12935;50.782;6.074;2023-03-12T14:38:31;29.30;;;9.87;;
24857;SDS011;12935;50.782;6.074;2023-03-12T14:43:50;25.10;;;10.03;;
24857;SDS011;12935;50.782;6.074;2023-03-12T14:46:18;19.30;;;9.23;;
24857;SDS011;12935;50.782;6.074;2023-03-12T14:48:48;18.67;;;8.63;;
24857;SDS011;12935;50.782;6.074;2023-03-12T14:51:21;31.53;;;13.17;;
24857;SDS011;12935;50.782;6.074;2023-03-12T14:53:55;27.83;;;9.30;;
24857;SDS011;12935;50.782;6.074;2023-03-12T14:56:29;22.83;;;7.97;;
24857;SDS011;12935;50.782;6.074;2023-03-12T14:58:59;20.60;;;9.07;;
24857;SDS011;12935;50.782;6.074;2023-03-12T15:01:43;26.67;;;10.25;;
24857;SDS011;12935;50.782;6.074;2023-03-12T15:04:17;20.73;;;8.30;;
24857;SDS011;12935;50.782;6.074;2023-03-12T15:06:47;27.93;;;11.17;;
24857;SDS011;12935;50.782;6.074;2023-03-12T15:09:24;17.70;;;7.30;;
24857;SDS011;12935;50.782;6.074;2023-03-12T15:12:02;20.30;;;8.00;;
24857;SDS011;12935;50.782;6.074;2023-03-12T15:14:34;71.57;;;9.63;;
24857;SDS011;12935;50.782;6.074;2023-03-12T15:17:04;13.07;;;6.83;;
24857;SDS011;12935;50.782;6.074;2023-03-12T15:19:32;19.80;;;7.40;;
24857;SDS011;12935;50.782;6.074;2023-03-12T15:22:00;17.60;;;6.40;;
24857;SDS011;12935;50.782;6.074;2023-03-12T15:24:29;12.15;;;7.10;;
24857;SDS011;12935;50.782;6.074;2023-03-12T15:30:20;14.30;;;6.13;;
24857;SDS011;12935;50.782;6.074;2023-03-12T15:35:42;21.40;;;7.65;;
24857;SDS011;12935;50.782;6.074;2023-03-12T15:38:23;18.25;;;5.95;;
24857;SDS011;12935;50.782;6.074;2023-03-12T15:40:50;21.23;;;7.67;;
24857;SDS011;12935;50.782;6.074;2023-03-12T15:43:19;22.35;;;5.70;;
24857;SDS011;12935;50.782;6.074;2023-03-12T15:45:47;37.95;;;8.13;;
24857;SDS011;12935;50.782;6.074;2023-03-12T15:48:27;16.90;;;6.45;;
24857;SDS011;12935;50.782;6.074;2023-03-12T15:50:56;21.15;;;7.38;;
24857;SDS011;12935;50.782;6.074;2023-03-12T15:53:27;36.23;;;7.53;;
24857;SDS011;12935;50.782;6.074;2023-03-12T15:55:57;26.30;;;9.02;;
24857;SDS011;12935;50.782;6.074;2023-03-12T15:58:31;29.55;;;8.75;;
24857;SDS011;12935;50.782;6.074;2023-03-12T16:01:11;15.25;;;6.10;;
24857;SDS011;12935;50.782;6.074;2023-03-12T16:03:39;21.17;;;6.90;;
24857;SDS011;12935;50.782;6.074;2023-03-12T16:06:25;15.43;;;7.07;;
24857;SDS011;12935;50.782;6.074;2023-03-12T16:11:22;18.98;;;5.35;;
24857;SDS011;12935;50.782;6.074;2023-03-12T16:14:01;19.88;;;9.15;;
24857;SDS011;12935;50.782;6.074;2023-03-12T16:16:29;25.13;;;6.70;;
24857;SDS011;12935;50.782;6.074;2023-03-12T16:18:55;17.60;;;6.90;;
24857;SDS011;12935;50.782;6.074;2023-03-12T16:21:20;23.00;;;9.07;;
24857;SDS011;12935;50.782;6.074;2023-03-12T16:23:45;15.57;;;5.37;;
24857;SDS011;12935;50.782;6.074;2023-03-12T16:26:11;18.20;;;6.57;;
24857;SDS011;12935;50.782;6.074;2023-03-12T16:28:37;24.10;;;7.15;;
24857;SDS011;12935;50.782;6.074;2023-03-12T16:31:09;20.23;;;5.83;;
24857;SDS011;12935;50.782;6.074;2023-03-12T16:33:39;26.90;;;7.05;;
24857;SDS011;12935;50.782;6.074;2023-03-12T16:36:14;39.53;;;8.35;;
24857;SDS011;12935;50.782;6.074;2023-03-12T16:38:41;16.67;;;6.28;;
24857;SDS011;12935;50.782;6.074;2023-03-12T16:41:26;17.85;;;5.75;;
24857;SDS011;12935;50.782;6.074;2023-03-12T16:43:52;17.52;;;6.82;;
24857;SDS011;12935;50.782;6.074;2023-03-12T16:46:19;29.67;;;6.53;;
24857;SDS011;12935;50.782;6.074;2023-03-12T16:48:49;18.33;;;6.53;;
24857;SDS011;12935;50.782;6.074;2023-03-12T16:51:16;39.92;;;7.28;;
24857;SDS011;12935;50.782;6.074;2023-03-12T16:53:45;20.40;;;5.60;;
24857;SDS011;12935;50.782;6.074;2023-03-12T16:56:18;12.23;;;6.03;;
24857;SDS011;12935;50.782;6.074;2023-03-12T16:58:46;15.65;;;5.55;;